Time;durP1;ratioP1;P1;durP2;ratioP2;P2;SDS_P1;SDS_P2;PMS_P1;PMS_P2;Temp;Humidity;BMP_temperature;BMP_pressure;BME280_temperature;BME280_humidity;BME280_pressure;Samples;Min_cycle;Max_cycle;Signal;HPM_P1;HPM_P2
2022/08/17 00:00:20;;;;;;;6.05;4.50;;;;;;;;;;5094536;28;20066;-82
2022/08/17 00:02:55;;;;;;;5.78;4.47;;;;;;;;;;5094496;28;20104;-82
2022/08/17 00:05:21;;;;;;;6.10;4.15;;;;;;;;;;5094216;28;20548;-82
2022/08/17 00:07:48;;;;;;;4.97;4.07;;;;;;;;;;5094181;28;20020;-82
2022/08/17 00:10:14;;;;;;;6.55;4.28;;;;;;;;;;5094414;28;20081;-82
2022/08/17 00:12:41;;;;;;;5.97;4.07;;;;;;;;;;5094060;28;20502;-82
2022/08/17 00:15:07;;;;;;;7.25;4.82;;;;;;;;;;5094278;28;20032;-82
2022/08/17 00:17:33;;;;;;;8.13;5.00;;;;;;;;;;5093907;28;20086;-82
2022/08/17 00:20:00;;;;;;;5.65;4.15;;;;;;;;;;5093885;28;20020;-81
2022/08/17 00:22:26;;;;;;;6.22;4.32;;;;;;;;;;5093874;28;20114;-82
2022/08/17 00:24:52;;;;;;;7.45;4.60;;;;;;;;;;5093911;28;20035;-82
2022/08/17 00:27:18;;;;;;;5.88;4.35;;;;;;;;;;5094088;28;20028;-82
2022/08/17 00:29:45;;;;;;;5.25;3.70;;;;;;;;;;5092632;28;20036;-82
2022/08/17 00:32:12;;;;;;;5.93;3.92;;;;;;;;;;5093843;28;20032;-82
2022/08/17 00:34:38;;;;;;;7.13;3.95;;;;;;;;;;5093739;28;20491;-82
2022/08/17 00:37:05;;;;;;;6.20;3.80;;;;;;;;;;5093683;28;20027;-82
2022/08/17 00:39:31;;;;;;;4.00;3.58;;;;;;;;;;5093729;28;20024;-82
2022/08/17 00:41:57;;;;;;;5.68;3.90;;;;;;;;;;5093592;28;20059;-82
2022/08/17 00:44:23;;;;;;;6.25;4.15;;;;;;;;;;5093637;28;20034;-82
2022/08/17 00:46:49;;;;;;;4.43;4.03;;;;;;;;;;5093306;28;20102;-82
2022/08/17 00:49:18;;;;;;;5.22;4.43;;;;;;;;;;5093297;28;20024;-82
2022/08/17 00:51:44;;;;;;;5.68;3.55;;;;;;;;;;5093526;28;20105;-82
2022/08/17 00:54:13;;;;;;;8.90;4.22;;;;;;;;;;5093366;28;20028;-82
2022/08/17 00:56:53;;;;;;;6.63;4.40;;;;;;;;;;5093430;28;20032;-82
2022/08/17 00:59:21;;;;;;;7.43;4.50;;;;;;;;;;5093477;28;20074;-82
2022/08/17 01:01:48;;;;;;;5.43;4.38;;;;;;;;;;5093040;28;20506;-82
2022/08/17 01:04:16;;;;;;;5.97;4.30;;;;;;;;;;5092114;28;20024;-82
2022/08/17 01:06:45;;;;;;;6.95;4.38;;;;;;;;;;5093091;28;20024;-82
2022/08/17 01:09:13;;;;;;;5.60;4.45;;;;;;;;;;5093275;28;20016;-82
2022/08/17 01:11:39;;;;;;;7.40;4.05;;;;;;;;;;5092783;28;20070;-82
2022/08/17 01:14:07;;;;;;;5.50;4.00;;;;;;;;;;5093235;28;20060;-82
2022/08/17 01:16:34;;;;;;;5.68;4.20;;;;;;;;;;5093052;28;20020;-82
2022/08/17 01:19:08;;;;;;;7.30;3.45;;;;;;;;;;5093024;28;20020;-82
2022/08/17 01:21:52;;;;;;;4.95;3.63;;;;;;;;;;5092835;28;20142;-82
2022/08/17 01:24:18;;;;;;;;;;;;;;;;;;5092019;28;20020;-81
2022/08/17 01:26:45;;;;;;;5.90;3.53;;;;;;;;;;5091651;28;19911;-82
2022/08/17 01:29:11;;;;;;;6.70;4.47;;;;;;;;;;5092373;28;20390;-82
2022/08/17 01:31:46;;;;;;;6.60;3.50;;;;;;;;;;5092429;28;20024;-81
2022/08/17 01:34:13;;;;;;;5.22;4.10;;;;;;;;;;5092806;28;20020;-82
2022/08/17 01:36:41;;;;;;;6.40;3.70;;;;;;;;;;5092847;28;20073;-82
2022/08/17 01:39:11;;;;;;;5.63;3.42;;;;;;;;;;5092672;28;20475;-82
2022/08/17 01:41:37;;;;;;;7.03;4.10;;;;;;;;;;5092724;28;20028;-81
2022/08/17 01:44:04;;;;;;;5.75;4.25;;;;;;;;;;5092777;28;20495;-81
2022/08/17 01:46:32;;;;;;;7.22;4.20;;;;;;;;;;5092198;28;20024;-82
2022/08/17 01:48:58;;;;;;;4.25;3.60;;;;;;;;;;5092687;28;20077;-82
2022/08/17 01:51:31;;;;;;;6.18;3.47;;;;;;;;;;5092178;28;20463;-83
2022/08/17 01:53:58;;;;;;;5.82;4.05;;;;;;;;;;5092710;28;20486;-82
2022/08/17 01:56:25;;;;;;;7.88;4.60;;;;;;;;;;5090914;28;20434;-82
2022/08/17 01:58:51;;;;;;;8.32;4.65;;;;;;;;;;5092559;28;20028;-82
2022/08/17 02:01:20;;;;;;;5.47;4.45;;;;;;;;;;5092363;28;20085;-84
2022/08/17 02:03:46;;;;;;;5.32;4.18;;;;;;;;;;5092589;28;20463;-83
2022/08/17 02:06:13;;;;;;;6.82;4.60;;;;;;;;;;5092434;28;20090;-83
2022/08/17 02:08:39;;;;;;;6.00;4.22;;;;;;;;;;5092357;28;20055;-83
2022/08/17 02:11:07;;;;;;;5.88;4.03;;;;;;;;;;5092365;28;20091;-83
2022/08/17 02:13:34;;;;;;;7.50;4.47;;;;;;;;;;5092375;28;20052;-82
2022/08/17 02:16:01;;;;;;;5.40;4.47;;;;;;;;;;5092386;28;20107;-82
2022/08/17 02:18:28;;;;;;;6.35;4.30;;;;;;;;;;5091105;28;20029;-81
2022/08/17 02:20:55;;;;;;;6.25;4.22;;;;;;;;;;5092482;28;20024;-82
2022/08/17 02:23:23;;;;;;;4.93;3.97;;;;;;;;;;5092116;28;20028;-82
2022/08/17 02:25:49;;;;;;;7.70;4.22;;;;;;;;;;5092324;28;20085;-82
2022/08/17 02:28:17;;;;;;;6.18;4.20;;;;;;;;;;5090830;28;20456;-82
2022/08/17 02:30:44;;;;;;;4.65;4.25;;;;;;;;;;5092236;28;20483;-82
2022/08/17 02:33:10;;;;;;;5.93;4.28;;;;;;;;;;5091846;28;20376;-82
2022/08/17 02:35:37;;;;;;;6.10;4.22;;;;;;;;;;5092223;28;20099;-82
2022/08/17 02:38:04;;;;;;;4.72;4.05;;;;;;;;;;5092149;28;20034;-82
2022/08/17 02:40:31;;;;;;;5.22;4.28;;;;;;;;;;5092322;28;20024;-82
2022/08/17 02:42:57;;;;;;;5.80;4.40;;;;;;;;;;5094739;28;20490;-82
2022/08/17 02:45:24;;;;;;;4.30;3.88;;;;;;;;;;5095711;28;20024;-82
2022/08/17 02:47:51;;;;;;;7.07;4.25;;;;;;;;;;5095557;28;20067;-82
2022/08/17 02:50:18;;;;;;;7.00;4.18;;;;;;;;;;5095695;28;20020;-83
2022/08/17 02:52:45;;;;;;;8.63;4.57;;;;;;;;;;5095691;28;20047;-82
2022/08/17 02:55:20;;;;;;;6.15;3.58;;;;;;;;;;5095635;28;20067;-82
2022/08/17 02:57:46;;;;;;;6.75;4.10;;;;;;;;;;5095606;28;20509;-82
2022/08/17 03:00:15;;;;;;;6.90;3.97;;;;;;;;;;5095530;28;20094;-82
2022/08/17 03:02:42;;;;;;;8.85;4.22;;;;;;;;;;5095494;28;20110;-82
2022/08/17 03:05:10;;;;;;;4.80;3.47;;;;;;;;;;5095506;28;20024;-82
2022/08/17 03:07:37;;;;;;;9.18;4.38;;;;;;;;;;5095479;28;20463;-82
2022/08/17 03:10:04;;;;;;;6.10;4.82;;;;;;;;;;5095504;28;20078;-82
2022/08/17 03:12:32;;;;;;;5.20;4.40;;;;;;;;;;5095416;28;20039;-82
2022/08/17 03:15:02;;;;;;;6.05;4.55;;;;;;;;;;5095289;28;20028;-82
2022/08/17 03:17:28;;;;;;;6.60;4.70;;;;;;;;;;5095431;28;20024;-82
2022/08/17 03:19:54;;;;;;;5.18;4.53;;;;;;;;;;5095315;28;20028;-82
2022/08/17 03:22:20;;;;;;;6.70;4.65;;;;;;;;;;5095084;28;20024;-82
2022/08/17 03:24:46;;;;;;;4.53;3.90;;;;;;;;;;5095266;28;20406;-82
2022/08/17 03:27:12;;;;;;;5.15;4.60;;;;;;;;;;5095119;28;20027;-82
2022/08/17 03:29:40;;;;;;;10.75;4.88;;;;;;;;;;5095014;28;20073;-82
2022/08/17 03:32:13;;;;;;;8.68;5.60;;;;;;;;;;5094765;28;20043;-82
2022/08/17 03:34:39;;;;;;;8.00;5.18;;;;;;;;;;5094941;28;20060;-82
2022/08/17 03:37:05;;;;;;;8.70;5.97;;;;;;;;;;5094803;28;20032;-81
2022/08/17 03:39:31;;;;;;;7.28;4.97;;;;;;;;;;5095021;28;20081;-83
2022/08/17 03:42:06;;;;;;;9.82;5.47;;;;;;;;;;5094648;28;20390;-82
2022/08/17 03:44:32;;;;;;;7.22;4.90;;;;;;;;;;5094898;28;20111;-82
2022/08/17 03:57:57;;;;;;;9.25;5.97;;;;;;;;;;5089682;28;19915;-82
2022/08/17 04:00:24;;;;;;;9.35;6.65;;;;;;;;;;5094612;28;20027;-82
2022/08/17 04:02:50;;;;;;;7.88;6.03;;;;;;;;;;5094374;28;20024;-82
2022/08/17 04:05:16;;;;;;;10.50;7.05;;;;;;;;;;5094285;28;20031;-80
2022/08/17 04:07:42;;;;;;;36.75;31.27;;;;;;;;;;5077962;28;20119;-82
2022/08/17 04:10:08;;;;;;;15.80;12.63;;;;;;;;;;5074062;28;20086;-79
2022/08/17 04:12:48;;;;;;;12.10;8.43;;;;;;;;;;5093736;28;20826;-80
2022/08/17 04:15:17;;;;;;;12.32;8.85;;;;;;;;;;5075625;28;20043;-79
2022/08/17 04:17:43;;;;;;;14.02;8.27;;;;;;;;;;5073797;28;20535;-81
2022/08/17 04:20:11;;;;;;;13.00;9.15;;;;;;;;;;5073409;28;20032;-79
2022/08/17 04:22:37;;;;;;;15.25;7.38;;;;;;;;;;5073854;28;20055;-81
2022/08/17 04:25:08;;;;;;;10.15;7.13;;;;;;;;;;5089496;28;20095;-79
2022/08/17 04:27:34;;;;;;;9.50;7.70;;;;;;;;;;5093835;28;20024;-81
2022/08/17 04:30:00;;;;;;;8.00;6.60;;;;;;;;;;5092169;28;20485;-80
2022/08/17 04:32:27;;;;;;;14.00;8.75;;;;;;;;;;5093542;28;20036;-79
2022/08/17 04:34:53;;;;;;;12.88;8.63;;;;;;;;;;5078464;28;20115;-79
2022/08/17 04:37:19;;;;;;;14.98;8.27;;;;;;;;;;5073524;28;20035;-82
2022/08/17 04:42:05;;;;;;;13.48;9.25;;;;;;;;;;5073295;28;20036;-82
2022/08/17 04:42:31;;;;;;;12.85;9.40;;;;;;;;;;5073209;28;20040;-80
2022/08/17 04:44:57;;;;;;;13.85;8.95;;;;;;;;;;5087802;28;20027;-80
2022/08/17 04:47:23;;;;;;;14.40;9.02;;;;;;;;;;5083100;28;20488;-82
2022/08/17 04:49:52;;;;;;;13.40;8.48;;;;;;;;;;5089877;28;20031;-82
2022/08/17 04:52:18;;;;;;;11.30;6.50;;;;;;;;;;5093290;28;20114;-81
2022/08/17 04:54:44;;;;;;;9.20;5.63;;;;;;;;;;5093052;28;20112;-78
2022/08/17 04:57:11;;;;;;;9.20;5.22;;;;;;;;;;5087008;28;20484;-82
2022/08/17 04:59:37;;;;;;;9.48;5.50;;;;;;;;;;5085328;28;20031;-81
2022/08/17 05:02:03;;;;;;;7.95;5.72;;;;;;;;;;5093055;28;20099;-81
2022/08/17 05:04:29;;;;;;;8.35;5.00;;;;;;;;;;5078630;28;20039;-80
2022/08/17 05:06:55;;;;;;;8.77;4.63;;;;;;;;;;5090613;28;20058;-79
2022/08/17 05:09:21;;;;;;;8.43;5.00;;;;;;;;;;5093056;28;20031;-79
2022/08/17 05:11:47;;;;;;;7.18;5.82;;;;;;;;;;5099396;28;20417;-81
2022/08/17 05:14:13;;;;;;;10.82;7.60;;;;;;;;;;5113179;28;20024;-77
2022/08/17 05:16:40;;;;;;;10.05;6.70;;;;;;;;;;5113213;28;20028;-78
2022/08/17 05:19:06;;;;;;;13.38;8.35;;;;;;;;;;5112529;28;20089;-80
2022/08/17 05:21:32;;;;;;;15.93;8.80;;;;;;;;;;5090883;28;20069;-77
2022/08/17 05:23:58;;;;;;;12.88;8.65;;;;;;;;;;5077002;28;20071;-81
2022/08/17 05:26:26;;;;;;;13.82;8.52;;;;;;;;;;5085327;28;20031;-79
2022/08/17 05:28:52;;;;;;;11.85;7.63;;;;;;;;;;5074221;28;20032;-79
2022/08/17 05:31:18;;;;;;;7.72;4.80;;;;;;;;;;5073263;28;20060;-80
2022/08/17 05:33:45;;;;;;;7.65;5.28;;;;;;;;;;5084298;28;20024;-79
2022/08/17 05:36:12;;;;;;;8.35;5.05;;;;;;;;;;5093803;28;20043;-79
2022/08/17 05:38:38;;;;;;;9.02;6.25;;;;;;;;;;5078003;28;20036;-82
2022/08/17 05:41:05;;;;;;;6.15;5.60;;;;;;;;;;5070997;28;20816;-82
2022/08/17 05:43:33;;;;;;;9.30;5.95;;;;;;;;;;5074848;28;20422;-80
2022/08/17 05:46:05;;;;;;;6.68;5.50;;;;;;;;;;5086770;28;20035;-83
2022/08/17 05:48:39;;;;;;;32.42;7.60;;;;;;;;;;5086500;28;20071;-80
2022/08/17 05:51:20;;;;;;;12.65;6.65;;;;;;;;;;5080761;28;20475;-81
2022/08/17 05:54:04;;;;;;;12.55;6.57;;;;;;;;;;5074721;28;20043;-82
2022/08/17 05:56:30;;;;;;;9.85;7.10;;;;;;;;;;5083759;28;20025;-82
2022/08/17 05:59:05;;;;;;;11.63;6.50;;;;;;;;;;5071796;28;20032;-82
2022/08/17 06:01:42;;;;;;;24.30;11.52;;;;;;;;;;5088406;28;20036;-81
2022/08/17 06:04:26;;;;;;;39.67;18.08;;;;;;;;;;5077715;28;20051;-81
2022/08/17 06:07:04;;;;;;;67.68;28.25;;;;;;;;;;5089610;28;20029;-80
2022/08/17 06:09:49;;;;;;;104.60;41.22;;;;;;;;;;5073246;28;20446;-80
2022/08/17 06:12:28;;;;;;;75.25;34.28;;;;;;;;;;5091823;28;20039;-81
2022/08/17 06:15:13;;;;;;;51.33;25.35;;;;;;;;;;5077483;28;20036;-81
2022/08/17 06:17:39;;;;;;;24.90;14.35;;;;;;;;;;5076902;28;20035;-81
2022/08/17 06:20:10;;;;;;;25.80;12.75;;;;;;;;;;5083278;28;20041;-83
2022/08/17 06:22:39;;;;;;;14.25;10.02;;;;;;;;;;5087101;28;20123;-80
2022/08/17 06:25:07;;;;;;;14.60;9.00;;;;;;;;;;5094802;28;20028;-82
2022/08/17 06:27:43;;;;;;;10.00;7.85;;;;;;;;;;5082575;28;20027;-81
2022/08/17 06:30:14;;;;;;;13.25;7.57;;;;;;;;;;5075622;28;20091;-81
2022/08/17 06:32:45;;;;;;;10.32;7.00;;;;;;;;;;5089688;28;20043;-80
2022/08/17 06:35:12;;;;;;;10.65;7.03;;;;;;;;;;5094998;28;20042;-81
2022/08/17 06:37:41;;;;;;;10.38;7.80;;;;;;;;;;5086648;28;20105;-81
2022/08/17 06:40:26;;;;;;;9.25;7.03;;;;;;;;;;5081216;28;20468;-81
2022/08/17 06:43:06;;;;;;;8.95;7.60;;;;;;;;;;5090613;28;20027;-80
2022/08/17 06:45:37;;;;;;;11.93;8.52;;;;;;;;;;5080891;28;20426;-81
2022/08/17 06:48:15;;;;;;;12.57;8.82;;;;;;;;;;5078539;28;20049;-82
2022/08/17 06:50:52;;;;;;;10.45;7.32;;;;;;;;;;5075321;28;20384;-81
2022/08/17 06:53:26;;;;;;;12.50;7.63;;;;;;;;;;5081813;28;20116;-81
2022/08/17 06:55:58;;;;;;;10.10;6.28;;;;;;;;;;5078814;28;20044;-81
2022/08/17 06:58:30;;;;;;;10.13;8.32;;;;;;;;;;5080265;28;20036;-81
2022/08/17 07:00:58;;;;;;;12.38;7.38;;;;;;;;;;5091907;28;20024;-82
2022/08/17 07:03:43;;;;;;;9.10;5.78;;;;;;;;;;5091521;28;20071;-81
2022/08/17 07:06:14;;;;;;;9.35;5.57;;;;;;;;;;5089396;28;20033;-81
2022/08/17 07:08:53;;;;;;;11.13;8.40;;;;;;;;;;5081903;28;20502;-80
2022/08/17 07:11:22;;;;;;;8.05;5.78;;;;;;;;;;5083140;28;20445;-81
2022/08/17 07:13:48;;;;;;;14.50;6.82;;;;;;;;;;5077840;28;20063;-82
2022/08/17 07:16:35;;;;;;;12.10;6.35;;;;;;;;;;5085579;28;20025;-85
2022/08/17 07:19:01;;;;;;;9.25;6.60;;;;;;;;;;5074547;28;20040;-82
2022/08/17 07:21:35;;;;;;;9.27;7.35;;;;;;;;;;5078057;28;20032;-81
2022/08/17 07:24:22;;;;;;;9.35;7.15;;;;;;;;;;5074673;28;20094;-80
2022/08/17 07:27:02;;;;;;;8.00;6.45;;;;;;;;;;5079855;28;20394;-81
2022/08/17 07:29:28;;;;;;;19.25;10.32;;;;;;;;;;5093179;28;20047;-80
2022/08/17 07:31:54;;;;;;;36.83;17.65;;;;;;;;;;5075235;28;20036;-81
2022/08/17 07:34:21;;;;;;;23.05;11.35;;;;;;;;;;5102156;28;20031;-82
2022/08/17 07:36:47;;;;;;;15.77;8.65;;;;;;;;;;5092223;28;20036;-81
2022/08/17 07:39:25;;;;;;;8.45;6.80;;;;;;;;;;5092983;28;20031;-79
2022/08/17 07:42:01;;;;;;;16.20;8.82;;;;;;;;;;5081388;28;20050;-81
2022/08/17 07:44:27;;;;;;;13.77;8.75;;;;;;;;;;5084421;28;20032;-79
2022/08/17 07:49:40;;;;;;;10.07;6.63;;;;;;;;;;5077034;28;20047;-82
2022/08/17 07:52:11;;;;;;;9.35;5.15;;;;;;;;;;5081953;28;20089;-79
2022/08/17 07:54:41;;;;;;;7.10;4.43;;;;;;;;;;5089696;28;20062;-81
2022/08/17 07:57:13;;;;;;;13.25;8.73;;;;;;;;;;5087516;28;20487;-78
2022/08/17 07:59:41;;;;;;;9.77;5.97;;;;;;;;;;5090505;28;20036;-81
2022/08/17 08:02:26;;;;;;;11.45;7.68;;;;;;;;;;5087551;28;20051;-81
2022/08/17 08:05:11;;;;;;;10.23;5.55;;;;;;;;;;5075283;28;20032;-80
2022/08/17 08:07:50;;;;;;;8.05;5.68;;;;;;;;;;5088754;28;20032;-82
2022/08/17 08:10:34;;;;;;;6.50;4.50;;;;;;;;;;5078302;28;20052;-81
2022/08/17 08:13:19;;;;;;;7.28;4.45;;;;;;;;;;5077477;28;20040;-83
2022/08/17 08:15:55;;;;;;;9.15;3.97;;;;;;;;;;5083733;28;20447;-80
2022/08/17 08:18:42;;;;;;;7.35;4.22;;;;;;;;;;5086807;28;20024;-82
2022/08/17 08:21:17;;;;;;;6.45;4.70;;;;;;;;;;5093006;28;20020;-83
2022/08/17 08:24:15;;;;;;;6.03;4.88;;;;;;;;;;5090576;28;20024;-82
2022/08/17 08:26:54;;;;;;;6.50;3.85;;;;;;;;;;5043021;28;20037;-84
2022/08/17 08:29:39;;;;;;;5.82;4.13;;;;;;;;;;5084423;28;20463;-81
2022/08/17 08:32:19;;;;;;;5.10;4.10;;;;;;;;;;5085126;28;20383;-82
2022/08/17 08:35:04;;;;;;;10.13;4.60;;;;;;;;;;5084646;28;20550;-83
2022/08/17 08:37:49;;;;;;;5.90;4.18;;;;;;;;;;5090363;28;20032;-80
2022/08/17 08:40:23;;;;;;;10.73;4.05;;;;;;;;;;5084013;28;20027;-83
2022/08/17 08:43:01;;;;;;;9.15;3.67;;;;;;;;;;5073564;28;20111;-82
2022/08/17 08:45:37;;;;;;;5.65;4.13;;;;;;;;;;5087037;28;20035;-81
2022/08/17 08:48:21;;;;;;;6.18;3.90;;;;;;;;;;5081466;28;20113;-80
2022/08/17 08:50:47;;;;;;;6.65;3.78;;;;;;;;;;5072797;28;20074;-81
2022/08/17 08:53:28;;;;;;;5.30;3.78;;;;;;;;;;5072955;28;20118;-81
2022/08/17 08:55:59;;;;;;;5.65;3.92;;;;;;;;;;5080091;28;20052;-77
2022/08/17 08:58:34;;;;;;;7.20;3.60;;;;;;;;;;5083984;28;20051;-83
2022/08/17 09:01:07;;;;;;;7.63;3.58;;;;;;;;;;5073010;28;20031;-82
2022/08/17 09:03:52;;;;;;;40.20;18.30;;;;;;;;;;5081927;28;20028;-81
2022/08/17 09:06:28;;;;;;;56.25;25.15;;;;;;;;;;5092918;28;20111;-80
2022/08/17 09:09:15;;;;;;;47.05;21.67;;;;;;;;;;5088691;28;20028;-80
2022/08/17 09:11:41;;;;;;;20.52;10.85;;;;;;;;;;5085018;28;20109;-80
2022/08/17 09:14:18;;;;;;;16.83;8.27;;;;;;;;;;5078730;28;20040;-77
2022/08/17 09:19:20;;;;;;;6.60;3.92;;;;;;;;;;5083350;28;20036;-77
2022/08/17 09:22:09;;;;;;;6.75;3.90;;;;;;;;;;5080245;28;20037;-80
2022/08/17 09:24:45;;;;;;;6.18;4.32;;;;;;;;;;5080042;28;20051;-79
2022/08/17 09:27:15;;;;;;;5.68;3.35;;;;;;;;;;5076558;28;20032;-79
2022/08/17 09:30:02;;;;;;;5.25;3.70;;;;;;;;;;5075286;28;20039;-79
2022/08/17 09:32:37;;;;;;;3.58;2.38;;;;;;;;;;5084969;28;20093;-80
2022/08/17 09:35:15;;;;;;;3.85;2.85;;;;;;;;;;5078120;28;20039;-78
2022/08/17 09:38:00;;;;;;;6.35;3.30;;;;;;;;;;5077272;28;20024;-81
2022/08/17 09:40:45;;;;;;;7.47;3.33;;;;;;;;;;5071744;28;20024;-79
2022/08/17 09:43:29;;;;;;;5.90;3.50;;;;;;;;;;5079756;28;20078;-81
2022/08/17 09:45:58;;;;;;;6.30;3.53;;;;;;;;;;5080316;28;20039;-79
2022/08/17 09:48:27;;;;;;;4.28;2.75;;;;;;;;;;5087551;28;20556;-80
2022/08/17 09:50:56;;;;;;;3.92;3.25;;;;;;;;;;5082516;28;20032;-81
2022/08/17 09:53:22;;;;;;;7.47;3.60;;;;;;;;;;5080826;28;20036;-78
2022/08/17 09:55:57;;;;;;;4.60;3.25;;;;;;;;;;5078331;28;20556;-81
2022/08/17 09:58:27;;;;;;;7.68;4.63;;;;;;;;;;5071544;28;20129;-78
2022/08/17 10:00:56;;;;;;;5.72;4.15;;;;;;;;;;5075713;28;20467;-81
2022/08/17 10:03:41;;;;;;;7.57;4.00;;;;;;;;;;5079901;28;20040;-80
2022/08/17 10:06:14;;;;;;;9.05;5.50;;;;;;;;;;5077230;28;20031;-79
2022/08/17 10:09:05;;;;;;;12.68;11.48;;;;;;;;;;5075903;28;20480;-80
2022/08/17 10:14:54;;;;;;;4.87;3.27;;;;;;;;;;5070960;28;20035;-84
2022/08/17 10:17:22;;;;;;;5.15;3.28;;;;;;;;;;5080843;28;20317;-83
2022/08/17 10:19:48;;;;;;;6.00;3.92;;;;;;;;;;5079112;28;20032;-86
2022/08/17 10:28:09;;;;;;;5.72;3.65;;;;;;;;;;5076304;28;20438;-82
2022/08/17 10:30:37;;;;;;;6.32;3.60;;;;;;;;;;5074375;28;20043;-83
2022/08/17 10:33:14;;;;;;;7.63;3.42;;;;;;;;;;5083200;28;20038;-82
2022/08/17 10:35:47;;;;;;;4.47;3.45;;;;;;;;;;5079565;28;20067;-82
2022/08/17 10:38:31;;;;;;;5.07;3.33;;;;;;;;;;5079502;28;20028;-83
2022/08/17 10:41:02;;;;;;;5.97;3.60;;;;;;;;;;5071942;28;20032;-80
2022/08/17 10:43:47;;;;;;;6.07;3.38;;;;;;;;;;5087596;28;20032;-82
2022/08/17 10:46:24;;;;;;;7.70;3.60;;;;;;;;;;5087660;28;20066;-82
2022/08/17 10:49:09;;;;;;;4.13;3.20;;;;;;;;;;5071772;28;20080;-78
2022/08/17 10:51:36;;;;;;;4.80;3.42;;;;;;;;;;5074185;28;20040;-85
2022/08/17 10:54:03;;;;;;;7.35;4.20;;;;;;;;;;5105466;28;20040;-82
2022/08/17 10:56:42;;;;;;;5.80;3.40;;;;;;;;;;5077854;28;20134;-80
2022/08/17 10:59:08;;;;;;;5.20;2.90;;;;;;;;;;5096151;28;20063;-84
2022/08/17 11:01:37;;;;;;;8.00;3.72;;;;;;;;;;5091946;28;20099;-81
2022/08/17 11:04:03;;;;;;;5.55;3.47;;;;;;;;;;5090858;28;20047;-79
2022/08/17 11:06:29;;;;;;;4.97;4.47;;;;;;;;;;5077583;28;20036;-79
2022/08/17 11:08:58;;;;;;;7.75;6.88;;;;;;;;;;5075347;28;20499;-81
2022/08/17 11:11:39;;;;;;;5.35;3.00;;;;;;;;;;5075114;28;20392;-80
2022/08/17 11:14:12;;;;;;;3.85;2.95;;;;;;;;;;5085509;28;20036;-79
2022/08/17 11:16:46;;;;;;;4.93;3.60;;;;;;;;;;5095487;28;20070;-81
2022/08/17 11:19:15;;;;;;;5.95;3.30;;;;;;;;;;5076045;28;20032;-81
2022/08/17 11:22:00;;;;;;;3.15;2.67;;;;;;;;;;5077736;28;20379;-80
2022/08/17 11:24:57;;;;;;;6.38;3.20;;;;;;;;;;5092897;28;20028;-80
2022/08/17 11:27:30;;;;;;;4.10;2.97;;;;;;;;;;5073471;28;20076;-79
2022/08/17 11:30:02;;;;;;;5.13;2.67;;;;;;;;;;5089738;28;20079;-79
2022/08/17 11:32:38;;;;;;;7.68;3.72;;;;;;;;;;5093060;28;20032;-83
2022/08/17 11:35:23;;;;;;;8.95;4.68;;;;;;;;;;5086434;28;20134;-79
2022/08/17 11:37:54;;;;;;;6.60;2.90;;;;;;;;;;5077928;28;20039;-83
2022/08/17 11:40:26;;;;;;;6.85;2.88;;;;;;;;;;5077378;28;20037;-82
2022/08/17 11:42:58;;;;;;;4.07;2.58;;;;;;;;;;5096994;28;20032;-81
2022/08/17 11:45:33;;;;;;;5.22;2.72;;;;;;;;;;5076186;28;20025;-80
2022/08/17 11:53:50;;;;;;;5.68;3.17;;;;;;;;;;5076888;28;20564;-81
2022/08/17 11:56:37;;;;;;;4.63;2.70;;;;;;;;;;5075928;28;20480;-82
2022/08/17 11:59:23;;;;;;;6.47;3.28;;;;;;;;;;5075955;28;20429;-82
2022/08/17 12:01:49;;;;;;;3.03;2.72;;;;;;;;;;5095575;28;20035;-86
2022/08/17 12:04:18;;;;;;;4.63;2.90;;;;;;;;;;5084997;28;20027;-80
2022/08/17 12:06:44;;;;;;;5.70;2.80;;;;;;;;;;5079051;28;20526;-84
2022/08/17 12:09:18;;;;;;;5.15;3.38;;;;;;;;;;5080526;28;20032;-80
2022/08/17 12:11:56;;;;;;;3.33;2.45;;;;;;;;;;5085387;28;20036;-84
2022/08/17 12:14:25;;;;;;;3.85;3.05;;;;;;;;;;5087147;28;20495;-83
2022/08/17 12:17:17;;;;;;;3.63;2.92;;;;;;;;;;5090294;27;20084;-83
2022/08/17 12:19:43;;;;;;;5.38;2.97;;;;;;;;;;5103614;28;20040;-88
2022/08/17 12:22:17;;;;;;;5.22;2.75;;;;;;;;;;5094485;28;20024;-78
2022/08/17 12:25:02;;;;;;;3.67;2.42;;;;;;;;;;5078275;28;20020;-80
2022/08/17 12:27:35;;;;;;;5.28;3.20;;;;;;;;;;5075474;28;20054;-83
2022/08/17 12:30:05;;;;;;;4.63;2.75;;;;;;;;;;5092843;28;20043;-83
2022/08/17 12:32:40;;;;;;;3.72;2.53;;;;;;;;;;5102617;28;20383;-81
2022/08/17 12:35:28;;;;;;;3.60;2.05;;;;;;;;;;5102259;28;20100;-75
2022/08/17 12:37:56;;;;;;;4.32;2.50;;;;;;;;;;5099176;28;20031;-81
2022/08/17 12:40:25;;;;;;;5.38;3.30;;;;;;;;;;5094357;28;20023;-82
2022/08/17 12:42:59;;;;;;;3.78;2.53;;;;;;;;;;5094151;28;20046;-86
2022/08/17 12:45:25;;;;;;;;;;;;;;;;;;5094533;28;20402;-85
2022/08/17 12:48:10;;;;;;;3.97;2.60;;;;;;;;;;5090311;28;19931;-79
2022/08/17 12:50:38;;;;;;;4.25;2.78;;;;;;;;;;5081290;28;20414;-82
2022/08/17 12:53:10;;;;;;;3.70;2.30;;;;;;;;;;5074050;28;20085;-79
2022/08/17 12:55:37;;;;;;;4.85;3.00;;;;;;;;;;5073906;28;20040;-80
2022/08/17 12:58:04;;;;;;;3.63;2.28;;;;;;;;;;5086706;28;20028;-81
2022/08/17 13:00:36;;;;;;;7.60;6.88;;;;;;;;;;5078673;28;20028;-81
2022/08/17 13:03:07;;;;;;;4.88;2.67;;;;;;;;;;5073822;28;20016;-79
2022/08/17 13:05:38;;;;;;;3.80;2.97;;;;;;;;;;5073824;28;20030;-80
2022/08/17 13:08:15;;;;;;;4.90;2.90;;;;;;;;;;5073683;28;20016;-78
2022/08/17 13:10:42;;;;;;;4.63;2.80;;;;;;;;;;5073439;28;20374;-79
2022/08/17 13:13:37;;;;;;;3.90;2.55;;;;;;;;;;5073358;28;20063;-81
2022/08/17 13:16:24;;;;;;;3.55;2.40;;;;;;;;;;5056817;28;20041;-81
2022/08/17 13:19:09;;;;;;;3.35;3.05;;;;;;;;;;5075675;28;20111;-82
2022/08/17 13:21:36;;;;;;;4.15;2.53;;;;;;;;;;5082408;28;20024;-85
2022/08/17 13:24:15;;;;;;;5.72;2.47;;;;;;;;;;5086024;28;20031;-82
2022/08/17 13:26:41;;;;;;;3.33;2.47;;;;;;;;;;5092823;28;20016;-82
2022/08/17 13:29:22;;;;;;;4.38;2.58;;;;;;;;;;5086408;28;20036;-83
2022/08/17 13:31:49;;;;;;;5.35;2.58;;;;;;;;;;5093823;28;20035;-83
2022/08/17 13:34:34;;;;;;;5.32;2.92;;;;;;;;;;5093396;28;20016;-80
2022/08/17 13:37:19;;;;;;;3.58;2.75;;;;;;;;;;5092192;28;20030;-83
2022/08/17 13:39:47;;;;;;;4.07;2.45;;;;;;;;;;5093634;28;20035;-83
2022/08/17 13:42:32;;;;;;;3.67;2.17;;;;;;;;;;5093210;28;20028;-80
2022/08/17 13:44:59;;;;;;;4.32;3.00;;;;;;;;;;5093394;28;20024;-82
2022/08/17 13:47:29;;;;;;;3.38;1.92;;;;;;;;;;5092905;28;20491;-81
2022/08/17 13:49:55;;;;;;;4.63;2.30;;;;;;;;;;5093376;28;20020;-80
2022/08/17 13:52:38;;;;;;;2.42;1.50;;;;;;;;;;5093225;28;20028;-82
2022/08/17 13:55:07;;;;;;;3.15;2.15;;;;;;;;;;5093273;28;20081;-83
2022/08/17 13:57:34;;;;;;;2.92;1.90;;;;;;;;;;5093043;28;20169;-82
2022/08/17 14:00:30;;;;;;;3.42;2.10;;;;;;;;;;5093334;28;20069;-82
2022/08/17 14:03:00;;;;;;;4.97;3.58;;;;;;;;;;5076413;28;20040;-83
2022/08/17 14:05:27;;;;;;;4.13;2.38;;;;;;;;;;5093188;28;20028;-83
2022/08/17 14:08:12;;;;;;;3.35;2.15;;;;;;;;;;5093368;28;20017;-82
2022/08/17 14:10:38;;;;;;;6.05;2.30;;;;;;;;;;5095766;28;20115;-81
2022/08/17 14:13:05;;;;;;;3.92;3.17;;;;;;;;;;5104639;28;20042;-81
2022/08/17 14:15:32;;;;;;;3.38;2.25;;;;;;;;;;5107407;28;20031;-81
2022/08/17 14:17:59;;;;;;;3.88;2.03;;;;;;;;;;5112858;28;20037;-82
2022/08/17 14:20:25;;;;;;;5.80;3.22;;;;;;;;;;5110198;28;20031;-81
2022/08/17 14:22:52;;;;;;;6.85;3.50;;;;;;;;;;5105804;28;20107;-78
2022/08/17 14:25:21;;;;;;;6.82;3.17;;;;;;;;;;5111422;28;20474;-79
2022/08/17 14:27:48;;;;;;;5.05;3.20;;;;;;;;;;5105415;28;20028;-82
2022/08/17 14:30:16;;;;;;;3.80;3.20;;;;;;;;;;5092739;28;20028;-79
2022/08/17 14:32:43;;;;;;;4.65;3.10;;;;;;;;;;5092914;28;20047;-83
2022/08/17 14:35:11;;;;;;;5.90;4.72;;;;;;;;;;5093063;28;20051;-81
2022/08/17 14:37:37;;;;;;;7.13;3.90;;;;;;;;;;5094767;28;20040;-79
2022/08/17 14:40:06;;;;;;;5.63;3.58;;;;;;;;;;5094943;28;20487;-80
2022/08/17 14:42:34;;;;;;;9.00;8.20;;;;;;;;;;5084870;28;20025;-78
2022/08/17 14:45:04;;;;;;;4.88;3.83;;;;;;;;;;5096870;28;20062;-77
2022/08/17 14:47:31;;;;;;;3.33;2.58;;;;;;;;;;5096326;28;20048;-77
2022/08/17 14:49:57;;;;;;;4.78;3.25;;;;;;;;;;5096469;28;20030;-76
2022/08/17 14:52:24;;;;;;;5.65;3.00;;;;;;;;;;5096552;28;20032;-78
2022/08/17 14:54:51;;;;;;;3.35;2.50;;;;;;;;;;5096667;28;20040;-81
2022/08/17 14:57:36;;;;;;;6.32;2.80;;;;;;;;;;5096680;28;20035;-78
2022/08/17 15:00:02;;;;;;;6.10;3.53;;;;;;;;;;5096375;28;20101;-78
2022/08/17 15:02:28;;;;;;;4.13;3.00;;;;;;;;;;5096232;28;20063;-76
2022/08/17 15:04:59;;;;;;;3.75;2.53;;;;;;;;;;5096225;28;20070;-79
2022/08/17 15:07:25;;;;;;;5.53;3.40;;;;;;;;;;5096079;28;20032;-79
2022/08/17 15:09:51;;;;;;;6.55;4.90;;;;;;;;;;5096255;28;20017;-79
2022/08/17 15:12:22;;;;;;;9.20;8.35;;;;;;;;;;5096148;28;20027;-76
2022/08/17 15:14:48;;;;;;;5.20;3.22;;;;;;;;;;5091380;28;20040;-77
2022/08/17 15:17:14;;;;;;;3.60;3.00;;;;;;;;;;5096107;28;20028;-79
2022/08/17 15:19:40;;;;;;;6.90;3.67;;;;;;;;;;5098652;28;20016;-78
2022/08/17 15:22:15;;;;;;;6.40;3.55;;;;;;;;;;5106248;28;20461;-78
2022/08/17 15:24:41;;;;;;;6.13;3.78;;;;;;;;;;5096932;28;20042;-79
2022/08/17 15:27:07;;;;;;;5.35;3.42;;;;;;;;;;5106399;28;20356;-77
2022/08/17 15:29:33;;;;;;;6.57;3.88;;;;;;;;;;5095761;28;20024;-79
2022/08/17 15:32:00;;;;;;;5.85;3.33;;;;;;;;;;5094038;28;20378;-79
2022/08/17 15:34:26;;;;;;;4.10;3.53;;;;;;;;;;5095679;28;20027;-77
2022/08/17 15:36:53;;;;;;;4.53;3.15;;;;;;;;;;5089053;28;20209;-78